Time;durP1;ratioP1;P1;durP2;ratioP2;P2;SDS_P1;SDS_P2;PMS_P1;PMS_P2;Temp;Humidity;BMP_temperature;BMP_pressure;BME280_temperature;BME280_humidity;BME280_pressure;Samples;Min_cycle;Max_cycle;Signal;HPM_P1;HPM_P2
2022/11/10 00:00:04;;;;;;;3.43;1.77;;;12.50;99.90;;;;;;5026995;28;20225;-61
2022/11/10 00:02:30;;;;;;;3.90;1.27;;;12.50;99.90;;;;;;5024113;28;20562;-61
2022/11/10 00:04:56;;;;;;;3.70;1.37;;;12.50;99.90;;;;;;5026888;28;20252;-59
2022/11/10 00:07:25;;;;;;;3.53;1.60;;;12.50;99.90;;;;;;5026725;28;20194;-58
2022/11/10 00:09:54;;;;;;;1.43;1.20;;;12.40;99.90;;;;;;5026499;28;20263;-67
2022/11/10 00:12:21;;;;;;;3.63;1.67;;;12.40;99.90;;;;;;5026601;28;20207;-67
2022/11/10 00:17:34;;;;;;;2.30;1.43;;;12.30;99.90;;;;;;5029012;28;20824;-65
2022/11/10 00:19:59;;;;;;;1.73;1.10;;;12.30;99.90;;;;;;5024268;28;20205;-65
2022/11/10 00:22:25;;;;;;;3.13;1.50;;;12.30;99.90;;;;;;5027241;28;20214;-69
2022/11/10 00:24:50;;;;;;;3.70;1.40;;;12.40;99.90;;;;;;5026056;28;20654;-67
2022/11/10 00:27:16;;;;;;;1.20;1.10;;;12.40;99.90;;;;;;5025738;28;21035;-66
2022/11/10 00:29:41;;;;;;;0.93;0.93;;;12.40;99.90;;;;;;5025283;28;20259;-66
2022/11/10 00:32:08;;;;;;;9.57;1.60;;;12.40;99.90;;;;;;5027512;28;20210;-65
2022/11/10 00:34:33;;;;;;;4.23;1.87;;;12.40;99.90;;;;;;5023467;28;20207;-65
2022/11/10 00:36:59;;;;;;;2.20;1.27;;;12.50;99.90;;;;;;5024170;28;20535;-67
2022/11/10 00:39:24;;;;;;;2.27;1.80;;;12.50;99.90;;;;;;5025486;28;20632;-66
2022/11/10 00:41:50;;;;;;;3.20;1.60;;;12.50;99.90;;;;;;5021286;28;20257;-65
2022/11/10 00:44:15;;;;;;;3.87;1.57;;;12.50;99.90;;;;;;5027580;28;20221;-67
2022/11/10 00:46:41;;;;;;;2.00;1.50;;;12.50;99.90;;;;;;5025944;28;20486;-66
2022/11/10 00:49:06;;;;;;;1.97;1.30;;;12.50;99.90;;;;;;5026487;28;20236;-67
2022/11/10 00:51:32;;;;;;;2.57;1.57;;;12.50;99.90;;;;;;5025938;28;20280;-62
2022/11/10 00:53:57;;;;;;;5.10;2.10;;;12.50;99.90;;;;;;5025593;28;20211;-65
2022/11/10 00:56:24;;;;;;;4.37;1.20;;;12.60;99.90;;;;;;5025975;28;20215;-64
2022/11/10 00:58:50;;;;;;;5.00;1.77;;;12.60;99.90;;;;;;5026762;28;21434;-65
2022/11/10 01:01:19;;;;;;;3.93;1.30;;;12.60;99.90;;;;;;5023879;28;20700;-66
2022/11/10 01:03:45;;;;;;;4.37;1.80;;;12.60;99.90;;;;;;5026503;28;20670;-67
2022/11/10 01:06:13;;;;;;;5.17;1.90;;;12.50;99.90;;;;;;5026864;28;20272;-65
2022/11/10 01:08:40;;;;;;;5.00;1.87;;;12.50;99.90;;;;;;5028144;28;20191;-65
2022/11/10 01:11:23;;;;;;;5.27;1.50;;;12.50;99.90;;;;;;5024870;28;20589;-66
2022/11/10 01:13:50;;;;;;;8.37;2.20;;;12.50;99.90;;;;;;5026818;28;20671;-66
2022/11/10 01:16:20;;;;;;;3.20;1.97;;;12.40;99.90;;;;;;5024761;28;20284;-67
2022/11/10 01:18:51;;;;;;;4.27;1.63;;;12.40;99.90;;;;;;5026313;28;20226;-67
2022/11/10 01:21:16;;;;;;;3.43;2.00;;;12.40;99.90;;;;;;5025634;28;20277;-67
2022/11/10 01:23:42;;;;;;;6.73;1.80;;;12.50;99.90;;;;;;5025944;28;20195;-67
2022/11/10 01:26:08;;;;;;;2.50;1.20;;;12.50;99.90;;;;;;5026191;28;20209;-66
2022/11/10 01:28:35;;;;;;;2.63;1.33;;;12.50;99.90;;;;;;5024469;28;20210;-65
2022/11/10 01:31:07;;;;;;;6.43;2.20;;;12.40;99.90;;;;;;5026265;28;20849;-65
2022/11/10 01:33:33;;;;;;;3.40;1.83;;;12.50;99.90;;;;;;5026366;28;20202;-65
2022/11/10 01:35:59;;;;;;;3.60;1.20;;;12.50;99.90;;;;;;5026242;28;20270;-66
2022/11/10 01:38:30;;;;;;;5.33;1.70;;;12.50;99.90;;;;;;5026144;28;20198;-65
2022/11/10 01:40:56;;;;;;;3.67;1.43;;;12.50;99.90;;;;;;5025354;28;20303;-65
2022/11/10 01:43:22;;;;;;;2.97;1.60;;;12.50;99.90;;;;;;5025178;28;20210;-66
2022/11/10 01:46:02;;;;;;;3.87;1.57;;;12.40;99.90;;;;;;5024893;28;20199;-63
2022/11/10 01:48:36;;;;;;;2.57;1.30;;;12.40;99.90;;;;;;5025778;28;20208;-66
2022/11/10 01:51:14;;;;;;;4.87;1.60;;;12.40;99.90;;;;;;5023778;28;21011;-68
2022/11/10 01:53:42;;;;;;;5.23;1.57;;;12.40;99.90;;;;;;5024987;28;20220;-72
2022/11/10 01:56:10;;;;;;;3.70;1.30;;;12.40;99.90;;;;;;5025396;28;20229;-69
2022/11/10 01:58:40;;;;;;;3.83;1.33;;;12.40;99.90;;;;;;5025248;28;20291;-74
2022/11/10 02:01:07;;;;;;;2.40;1.47;;;12.40;99.90;;;;;;5023175;28;20328;-73
2022/11/10 02:03:50;;;;;;;1.23;1.00;;;12.40;99.90;;;;;;5025570;28;20204;-74
2022/11/10 02:06:17;;;;;;;3.60;1.37;;;12.40;99.90;;;;;;5025277;28;20749;-74
2022/11/10 02:08:43;;;;;;;3.97;1.53;;;12.40;99.90;;;;;;5023194;28;20247;-75
2022/11/10 02:11:09;;;;;;;2.97;1.23;;;12.40;99.90;;;;;;5027607;28;20211;-75
2022/11/10 02:13:35;;;;;;;3.03;1.30;;;12.40;99.90;;;;;;5028727;28;20227;-75
2022/11/10 02:16:00;;;;;;;4.43;1.70;;;12.30;99.90;;;;;;5028455;28;20202;-75
2022/11/10 02:18:26;;;;;;;2.47;1.90;;;12.30;99.90;;;;;;5026361;28;20720;-75
2022/11/10 02:20:52;;;;;;;1.43;1.33;;;12.30;99.90;;;;;;5028254;28;20300;-74
2022/11/10 02:23:29;;;;;;;1.97;1.67;;;12.30;99.90;;;;;;5028905;28;20344;-75
2022/11/10 02:25:55;;;;;;;1.83;1.20;;;12.30;99.90;;;;;;5028739;28;20288;-74
2022/11/10 02:28:22;;;;;;;2.23;1.27;;;12.30;99.90;;;;;;5027565;28;20280;-74
2022/11/10 02:30:48;;;;;;;4.37;1.37;;;12.30;99.90;;;;;;5028062;28;20204;-75
2022/11/10 02:33:16;;;;;;;5.07;1.60;;;12.30;99.90;;;;;;5030133;28;20872;-75
2022/11/10 02:35:42;;;;;;;6.10;1.80;;;12.30;99.90;;;;;;5025068;28;20226;-74
2022/11/10 02:38:08;;;;;;;4.10;1.70;;;12.30;99.90;;;;;;5032740;28;20199;-74
2022/11/10 02:40:33;;;;;;;6.33;1.50;;;12.30;99.90;;;;;;5028218;28;20199;-74
2022/11/10 02:42:59;;;;;;;5.80;2.23;;;12.30;99.90;;;;;;5026846;28;20820;-73
2022/11/10 02:45:24;;;;;;;6.07;1.70;;;12.30;99.90;;;;;;5029073;28;20225;-76
2022/11/10 02:47:50;;;;;;;4.93;1.60;;;12.30;99.90;;;;;;5029161;28;20681;-74
2022/11/10 02:50:16;;;;;;;5.20;1.60;;;12.30;99.90;;;;;;5028960;28;20217;-74
2022/11/10 02:52:41;;;;;;;2.60;1.47;;;12.30;99.90;;;;;;5032864;28;20210;-74
2022/11/10 02:55:07;;;;;;;1.67;1.30;;;12.30;99.90;;;;;;5038665;28;20230;-69
2022/11/10 02:57:33;;;;;;;5.23;1.90;;;12.30;99.90;;;;;;5036539;28;20225;-69
2022/11/10 02:59:58;;;;;;;1.77;1.40;;;12.30;99.90;;;;;;5038316;28;20210;-70
2022/11/10 03:02:23;;;;;;;4.43;2.07;;;12.30;99.90;;;;;;5038332;28;20272;-70
2022/11/10 03:04:49;;;;;;;3.37;1.60;;;12.30;99.90;;;;;;5038583;28;20195;-70
2022/11/10 03:07:14;;;;;;;7.03;1.77;;;12.30;99.90;;;;;;5038206;28;20209;-70
2022/11/10 03:09:40;;;;;;;4.47;1.67;;;12.20;99.90;;;;;;5037205;28;20237;-70
2022/11/10 03:12:05;;;;;;;8.50;1.97;;;12.20;99.90;;;;;;5038441;28;20190;-69
2022/11/10 03:14:31;;;;;;;3.30;1.40;;;12.20;99.90;;;;;;5038018;28;20653;-70
2022/11/10 03:16:56;;;;;;;3.17;1.43;;;12.20;99.90;;;;;;5038027;28;20199;-69
2022/11/10 03:19:22;;;;;;;7.53;2.30;;;12.20;99.90;;;;;;5039875;28;20256;-69
2022/11/10 03:21:47;;;;;;;3.20;1.60;;;12.20;99.90;;;;;;5037859;28;20215;-70
2022/11/10 03:24:13;;;;;;;3.57;1.77;;;12.20;99.90;;;;;;5036068;28;20245;-69
2022/11/10 03:26:38;;;;;;;8.20;1.67;;;12.10;99.90;;;;;;5037842;28;21010;-70
2022/11/10 03:29:04;;;;;;;4.93;1.83;;;12.10;99.90;;;;;;5037888;28;20195;-70
2022/11/10 03:31:29;;;;;;;2.50;1.50;;;12.00;99.90;;;;;;5034262;28;20290;-70
2022/11/10 03:33:54;;;;;;;2.70;1.60;;;12.00;99.90;;;;;;5034254;28;20607;-71
2022/11/10 03:36:20;;;;;;;3.93;1.93;;;11.90;99.90;;;;;;5037115;28;20198;-72
2022/11/10 03:38:45;;;;;;;3.97;1.80;;;11.90;99.90;;;;;;5037043;28;20202;-72
2022/11/10 03:41:11;;;;;;;5.63;1.57;;;11.90;99.90;;;;;;5037234;28;20314;-71
2022/11/10 03:43:36;;;;;;;3.90;1.63;;;11.80;99.90;;;;;;5037803;28;20201;-71
2022/11/10 03:46:02;;;;;;;2.97;1.80;;;11.80;99.90;;;;;;5037646;28;20317;-71
2022/11/10 03:48:27;;;;;;;3.80;1.67;;;11.80;99.90;;;;;;5037192;28;20676;-71
2022/11/10 03:50:53;;;;;;;4.30;1.70;;;11.70;99.90;;;;;;5037052;28;20317;-70
2022/11/10 03:53:18;;;;;;;3.37;1.60;;;11.70;99.90;;;;;;5035100;28;20212;-72
2022/11/10 03:55:44;;;;;;;3.73;1.87;;;11.60;99.90;;;;;;5037427;28;20222;-72
2022/11/10 03:58:09;;;;;;;6.93;1.97;;;11.50;99.90;;;;;;5037309;28;20210;-72
2022/11/10 04:00:35;;;;;;;9.80;2.30;;;11.50;99.90;;;;;;5036930;28;20299;-71
2022/11/10 04:03:00;;;;;;;6.23;2.17;;;11.40;99.90;;;;;;5036855;28;20201;-72
2022/11/10 04:10:59;;;;;;;5.83;2.20;;;11.30;99.90;;;;;;5037184;28;20227;-70
2022/11/10 04:16:09;;;;;;;4.37;2.07;;;11.30;99.90;;;;;;5036875;28;20268;-73
2022/11/10 04:18:34;;;;;;;3.63;2.10;;;11.30;99.90;;;;;;5036963;28;20197;-72
2022/11/10 04:21:01;;;;;;;4.73;2.33;;;11.20;99.90;;;;;;5036416;28;20226;-74
2022/11/10 04:23:35;;;;;;;4.17;1.50;;;11.20;99.90;;;;;;5034739;28;20195;-74
2022/11/10 04:28:56;;;;;;;4.83;2.03;;;11.10;99.90;;;;;;5037000;28;20272;-75
2022/11/10 04:31:23;;;;;;;4.63;2.10;;;11.00;99.90;;;;;;5035167;28;20218;-74
2022/11/10 04:33:50;;;;;;;3.47;1.80;;;10.90;99.90;;;;;;5035832;28;20667;-74
2022/11/10 04:36:18;;;;;;;3.23;2.57;;;10.90;99.90;;;;;;5036415;28;20233;-74
2022/11/10 04:38:44;;;;;;;6.87;2.47;;;10.90;99.90;;;;;;5036304;28;20206;-74
2022/11/10 04:41:10;;;;;;;2.90;1.50;;;10.80;99.90;;;;;;5038234;28;20261;-71
2022/11/10 04:43:36;;;;;;;5.77;2.03;;;10.80;99.90;;;;;;5034321;28;20206;-75
2022/11/10 04:46:03;;;;;;;10.87;2.53;;;10.80;99.90;;;;;;5036478;28;20199;-76
2022/11/10 04:48:29;;;;;;;9.43;2.70;;;10.80;99.90;;;;;;5036008;28;20543;-75
2022/11/10 04:50:55;;;;;;;8.73;2.60;;;10.80;99.90;;;;;;5035456;28;20269;-75
2022/11/10 04:53:21;;;;;;;5.87;2.03;;;10.70;99.90;;;;;;5031919;28;20215;-71
2022/11/10 04:55:47;;;;;;;7.10;2.33;;;10.70;99.90;;;;;;5036316;28;20573;-72
2022/11/10 04:58:13;;;;;;;5.10;2.10;;;10.60;99.90;;;;;;5036814;28;20262;-74
2022/11/10 05:00:39;;;;;;;3.87;2.30;;;10.60;99.90;;;;;;5035948;28;20204;-69
2022/11/10 05:03:07;;;;;;;4.13;2.80;;;10.60;99.90;;;;;;5035615;28;20751;-74
2022/11/10 05:05:33;;;;;;;5.53;2.20;;;10.50;99.90;;;;;;5036084;28;20250;-73
2022/11/10 05:07:58;;;;;;;7.97;2.37;;;10.60;99.90;;;;;;5035831;28;20223;-70
2022/11/10 05:10:24;;;;;;;4.73;1.80;;;10.60;99.90;;;;;;5035878;28;20208;-71
2022/11/10 05:12:56;;;;;;;7.80;3.97;;;10.50;99.90;;;;;;5029231;28;20199;-73
2022/11/10 05:15:23;;;;;;;4.03;2.23;;;10.50;99.90;;;;;;5036027;28;20227;-72
2022/11/10 05:17:52;;;;;;;7.60;2.33;;;10.50;99.90;;;;;;5035702;28;20687;-73
2022/11/10 05:20:19;;;;;;;3.07;2.30;;;10.50;99.90;;;;;;5035912;28;20200;-74
2022/11/10 05:23:36;;;;;;;4.93;2.30;;;10.40;99.90;;;;;;5035856;28;20212;-72
2022/11/10 05:25:33;;;;;;;4.77;2.47;;;10.30;99.90;;;;;;5028530;28;20199;-74
2022/11/10 05:27:58;;;;;;;7.37;2.07;;;10.40;99.90;;;;;;5035933;28;20228;-74
2022/11/10 05:30:24;;;;;;;7.43;2.20;;;10.40;99.90;;;;;;5035633;28;20206;-74
2022/11/10 05:32:49;;;;;;;7.60;2.50;;;10.50;99.90;;;;;;5032469;28;20276;-62
2022/11/10 05:35:15;;;;;;;4.70;2.43;;;10.50;99.90;;;;;;5024072;28;20203;-64
2022/11/10 05:37:40;;;;;;;3.53;2.10;;;10.50;99.90;;;;;;5027118;28;21072;-64
2022/11/10 05:40:06;;;;;;;2.77;2.07;;;10.50;99.90;;;;;;5025307;28;20202;-63
2022/11/10 05:42:32;;;;;;;7.33;2.60;;;10.50;99.90;;;;;;5024877;28;20244;-63
2022/11/10 05:44:57;;;;;;;5.60;2.53;;;10.50;99.90;;;;;;5023730;28;20281;-63
2022/11/10 05:47:22;;;;;;;10.13;3.37;;;10.50;99.90;;;;;;5029882;28;20686;-65
2022/11/10 05:49:48;;;;;;;6.30;2.73;;;10.50;99.90;;;;;;5029355;28;20295;-62
2022/11/10 05:52:14;;;;;;;7.73;3.07;;;10.40;99.90;;;;;;5027878;28;20204;-64
2022/11/10 05:54:39;;;;;;;4.33;2.40;;;10.40;99.90;;;;;;5028528;28;20229;-65
2022/11/10 05:57:05;;;;;;;5.97;2.47;;;10.30;99.90;;;;;;5028898;28;20200;-66
2022/11/10 05:59:31;;;;;;;6.93;3.00;;;10.30;99.90;;;;;;5027630;28;20202;-66
2022/11/10 06:01:57;;;;;;;4.83;3.20;;;10.30;99.90;;;;;;5029160;28;20236;-67
2022/11/10 06:04:29;;;;;;;3.33;2.30;;;10.30;99.90;;;;;;5028052;28;20206;-65
2022/11/10 06:06:55;;;;;;;6.13;2.53;;;10.20;99.90;;;;;;5028410;28;20197;-63
2022/11/10 06:09:21;;;;;;;5.93;3.10;;;10.30;99.90;;;;;;5028231;28;20579;-64
2022/11/10 06:11:46;;;;;;;4.83;2.60;;;10.20;99.90;;;;;;5028111;28;20209;-64
2022/11/10 06:14:12;;;;;;;6.33;2.80;;;10.20;99.90;;;;;;5027605;28;20195;-65
2022/11/10 06:16:37;;;;;;;8.03;2.63;;;10.10;99.90;;;;;;5027829;28;20669;-67
2022/11/10 06:19:03;;;;;;;9.90;3.23;;;10.10;99.90;;;;;;5028252;28;20209;-65
2022/11/10 06:21:28;;;;;;;4.83;2.87;;;10.10;99.90;;;;;;5028578;28;20836;-65
2022/11/10 06:23:54;;;;;;;8.47;3.23;;;10.00;99.90;;;;;;5026982;28;20200;-66
2022/11/10 06:26:19;;;;;;;5.70;2.57;;;10.00;99.90;;;;;;5027917;28;20200;-67
2022/11/10 06:28:45;;;;;;;4.17;2.17;;;10.00;99.90;;;;;;5029953;28;20200;-67
2022/11/10 06:31:10;;;;;;;6.67;2.53;;;10.00;99.90;;;;;;5034123;28;20231;-67
2022/11/10 06:33:36;;;;;;;8.70;3.50;;;10.00;99.90;;;;;;5028282;28;20198;-67
2022/11/10 06:36:02;;;;;;;4.77;2.80;;;9.90;99.90;;;;;;5029094;28;20679;-66
2022/11/10 06:38:27;;;;;;;8.53;2.60;;;10.00;99.90;;;;;;5027512;28;20448;-66
2022/11/10 06:40:54;;;;;;;11.20;3.30;;;10.00;99.90;;;;;;5029389;28;20207;-66
2022/11/10 06:43:20;;;;;;;7.60;2.53;;;10.00;99.90;;;;;;5027708;28;20293;-66
2022/11/10 06:45:45;;;;;;;5.87;2.83;;;9.90;99.90;;;;;;5030908;28;20197;-67
2022/11/10 06:48:12;;;;;;;7.63;2.77;;;9.90;99.90;;;;;;5025583;28;20204;-67
2022/11/10 06:50:38;;;;;;;3.60;2.30;;;10.00;99.90;;;;;;5026207;28;20205;-68
2022/11/10 06:53:04;;;;;;;3.60;2.67;;;9.90;99.90;;;;;;5029358;28;20196;-66
2022/11/10 06:55:30;;;;;;;9.70;3.53;;;10.00;99.90;;;;;;5027410;28;20842;-66
2022/11/10 06:57:56;;;;;;;4.07;2.87;;;10.00;99.90;;;;;;5028834;28;20295;-67
2022/11/10 07:00:22;;;;;;;7.27;2.57;;;10.10;99.90;;;;;;5028461;28;20199;-69
2022/11/10 07:02:56;;;;;;;6.80;3.17;;;10.10;99.90;;;;;;5030579;28;20226;-66
2022/11/10 07:05:22;;;;;;;6.77;3.03;;;10.20;99.90;;;;;;5027514;28;20210;-66
2022/11/10 07:07:47;;;;;;;7.60;3.03;;;10.30;99.90;;;;;;5027272;28;20196;-69
2022/11/10 07:10:13;;;;;;;8.70;3.07;;;10.40;99.90;;;;;;5027496;28;20381;-66
2022/11/10 07:12:39;;;;;;;3.87;2.07;;;10.40;99.90;;;;;;5031091;28;20206;-65
2022/11/10 07:15:05;;;;;;;3.30;2.60;;;10.50;99.90;;;;;;5030591;28;20669;-66
2022/11/10 07:17:30;;;;;;;8.83;3.20;;;10.60;99.90;;;;;;5025511;28;20198;-65
2022/11/10 07:19:56;;;;;;;4.47;2.73;;;10.70;99.90;;;;;;5027248;28;20258;-66
2022/11/10 07:22:22;;;;;;;6.80;2.93;;;10.70;99.90;;;;;;5026765;28;20216;-66
2022/11/10 07:24:47;;;;;;;7.30;3.00;;;10.80;99.90;;;;;;5025384;28;20206;-65
2022/11/10 07:27:13;;;;;;;6.20;2.43;;;10.80;99.90;;;;;;5027721;28;20657;-66
2022/11/10 07:29:38;;;;;;;3.33;2.27;;;10.90;99.90;;;;;;5030831;28;20260;-66
2022/11/10 07:32:04;;;;;;;5.30;1.90;;;10.90;99.90;;;;;;5028988;28;20218;-65
2022/11/10 07:34:29;;;;;;;6.70;3.27;;;10.80;99.90;;;;;;5027598;28;20397;-66
2022/11/10 07:36:55;;;;;;;9.93;2.80;;;10.80;99.90;;;;;;5031918;28;20574;-66
2022/11/10 07:39:20;;;;;;;6.07;3.20;;;10.70;99.90;;;;;;5027172;28;20206;-66
2022/11/10 07:41:46;;;;;;;8.07;2.93;;;10.70;99.90;;;;;;5027148;28;20232;-67
2022/11/10 07:44:11;;;;;;;7.10;3.37;;;10.60;99.90;;;;;;5025443;28;20261;-66
2022/11/10 07:46:37;;;;;;;8.90;3.67;;;10.60;99.90;;;;;;5026643;28;20189;-66
2022/11/10 07:49:02;;;;;;;5.20;2.63;;;10.60;99.90;;;;;;5031529;28;20191;-66
2022/11/10 07:51:29;;;;;;;8.17;2.90;;;10.50;99.90;;;;;;5031441;28;20227;-66
2022/11/10 07:53:55;;;;;;;5.37;2.53;;;10.60;99.90;;;;;;5027197;28;20721;-64
2022/11/10 07:56:20;;;;;;;3.57;2.43;;;10.60;99.90;;;;;;5025660;28;20220;-64
2022/11/10 07:58:46;;;;;;;7.70;3.13;;;10.70;99.90;;;;;;5029997;28;20737;-63
2022/11/10 08:01:12;;;;;;;3.80;2.97;;;10.80;99.90;;;;;;5028682;28;20300;-65
2022/11/10 08:03:38;;;;;;;7.33;2.33;;;10.90;99.90;;;;;;5028040;28;20215;-62
2022/11/10 08:06:04;;;;;;;5.37;3.20;;;11.00;99.90;;;;;;5024299;28;20589;-61
2022/11/10 08:08:29;;;;;;;7.40;3.00;;;11.00;99.90;;;;;;5025644;28;20216;-62
2022/11/10 08:10:56;;;;;;;5.77;3.13;;;11.10;99.90;;;;;;5025921;28;20778;-65
2022/11/10 08:13:22;;;;;;;5.90;2.63;;;11.10;99.90;;;;;;5025705;28;20211;-65
2022/11/10 08:15:47;;;;;;;6.03;3.13;;;11.20;99.90;;;;;;5031886;28;20202;-66
2022/11/10 08:18:21;;;;;;;6.23;2.77;;;11.30;99.90;;;;;;5031015;28;20188;-62
2022/11/10 08:20:48;;;;;;;7.40;2.20;;;11.40;99.90;;;;;;5029047;28;20204;-62
2022/11/10 08:23:14;;;;;;;4.73;2.50;;;11.60;99.90;;;;;;5036313;28;20198;-62
2022/11/10 08:25:39;;;;;;;8.87;3.67;;;11.70;99.90;;;;;;5037024;28;20223;-63
2022/11/10 08:28:07;;;;;;;7.53;3.10;;;11.70;99.90;;;;;;5036536;28;20564;-63
2022/11/10 08:30:34;;;;;;;7.90;3.67;;;11.70;99.90;;;;;;5036480;28;20232;-63
2022/11/10 08:33:01;;;;;;;11.67;3.50;;;11.70;99.90;;;;;;5034639;28;20216;-62
2022/11/10 08:35:30;;;;;;;12.93;6.43;;;11.70;99.90;;;;;;5036406;28;20361;-61
2022/11/10 08:37:56;;;;;;;8.67;3.57;;;11.70;99.90;;;;;;5036127;28;21014;-61
2022/11/10 08:40:23;;;;;;;7.30;3.20;;;11.80;99.90;;;;;;5037400;28;20285;-62
2022/11/10 08:42:58;;;;;;;5.93;3.27;;;11.80;99.90;;;;;;5034209;28;20216;-61
2022/11/10 08:45:24;;;;;;;9.43;3.10;;;11.90;99.90;;;;;;5036476;28;20247;-62
2022/11/10 08:48:00;;;;;;;9.00;3.27;;;11.90;99.90;;;;;;5036208;28;20892;-62
2022/11/10 08:50:26;;;;;;;6.70;3.47;;;11.90;99.90;;;;;;5035229;28;20248;-62
2022/11/10 08:52:52;;;;;;;8.07;3.93;;;11.90;99.90;;;;;;5036035;28;20221;-63
2022/11/10 08:55:19;;;;;;;9.97;3.60;;;12.00;99.90;;;;;;5036152;28;20240;-63
2022/11/10 08:57:45;;;;;;;4.47;2.80;;;12.00;99.90;;;;;;5036195;28;20191;-62
2022/11/10 09:00:12;;;;;;;6.97;3.33;;;12.00;99.90;;;;;;5034991;28;20676;-62
2022/11/10 09:02:37;;;;;;;9.17;3.20;;;12.10;99.90;;;;;;5027206;28;20688;-63
2022/11/10 09:05:03;;;;;;;9.67;3.33;;;12.10;99.90;;;;;;5036475;28;20207;-63
2022/11/10 09:07:30;;;;;;;5.60;3.53;;;12.10;99.90;;;;;;5036059;28;20638;-62
2022/11/10 09:09:55;;;;;;;9.20;3.80;;;12.10;99.90;;;;;;5036068;28;20224;-62
2022/11/10 09:12:20;;;;;;;10.90;3.17;;;12.20;99.90;;;;;;5035814;28;20248;-62
2022/11/10 09:14:46;;;;;;;7.90;3.47;;;12.20;99.90;;;;;;5029491;28;20229;-63
2022/11/10 09:17:12;;;;;;;6.53;3.40;;;12.30;99.90;;;;;;5030665;28;20230;-62
2022/11/10 09:19:37;;;;;;;3.73;3.33;;;12.30;99.90;;;;;;5037598;28;20258;-62
2022/11/10 09:22:03;;;;;;;11.00;2.83;;;12.30;99.90;;;;;;5039881;28;20271;-63
2022/11/10 09:24:28;;;;;;;9.13;3.40;;;12.30;99.90;;;;;;5039402;28;20859;-62
2022/11/10 09:26:54;;;;;;;7.30;3.70;;;12.30;99.90;;;;;;5035330;28;20956;-62
2022/11/10 09:29:20;;;;;;;7.63;3.73;;;12.30;99.90;;;;;;5027257;28;20261;-62
2022/11/10 09:31:46;;;;;;;8.77;3.70;;;12.30;99.90;;;;;;5028882;28;20199;-62
2022/11/10 09:34:11;;;;;;;11.70;3.57;;;12.30;99.90;;;;;;5028850;28;20216;-63
2022/11/10 09:36:39;;;;;;;13.50;3.83;;;12.30;99.90;;;;;;5029078;28;20364;-62
2022/11/10 09:39:05;;;;;;;5.23;2.87;;;12.30;99.90;;;;;;5029350;28;20188;-62
2022/11/10 09:41:31;;;;;;;5.53;3.27;;;12.30;99.90;;;;;;5032905;28;20304;-63
2022/11/10 09:44:15;;;;;;;5.97;3.17;;;12.40;99.90;;;;;;5039039;28;20296;-63
2022/11/10 09:46:45;;;;;;;8.37;4.37;;;12.40;99.90;;;;;;5039611;28;20287;-62
2022/11/10 09:49:34;;;;;;;8.10;3.80;;;12.50;99.90;;;;;;5037800;28;20221;-69
2022/11/10 09:52:01;;;;;;;10.77;4.03;;;12.50;99.90;;;;;;5038338;28;20251;-69
2022/11/10 09:54:47;;;;;;;8.17;3.37;;;12.60;99.90;;;;;;5038447;28;20580;-69
2022/11/10 09:57:17;;;;;;;6.70;2.73;;;12.60;99.90;;;;;;5038734;28;20243;-69
2022/11/10 09:59:43;;;;;;;11.13;4.17;;;12.60;99.90;;;;;;5038783;28;20218;-69
2022/11/10 10:02:38;;;;;;;6.67;3.27;;;12.70;99.90;;;;;;5040955;28;20226;-58
2022/11/10 10:05:32;;;;;;;10.83;3.93;;;12.80;99.90;;;;;;5040385;28;20279;-58
2022/11/10 10:08:00;;;;;;;12.83;4.50;;;12.90;99.90;;;;;;5026177;28;20209;-56
2022/11/10 10:10:35;;;;;;;7.07;3.53;;;13.00;99.90;;;;;;5029047;28;20197;-57
2022/11/10 10:13:30;;;;;;;6.53;3.20;;;13.10;99.90;;;;;;5026180;28;20268;-57
2022/11/10 10:16:19;;;;;;;11.67;3.47;;;13.10;99.90;;;;;;5026937;28;20770;-59
2022/11/10 10:19:08;;;;;;;13.37;4.40;;;13.20;99.90;;;;;;5028643;28;20615;-58
2022/11/10 10:21:54;;;;;;;5.57;2.53;;;13.30;99.90;;;;;;5027927;28;20323;-59
2022/11/10 10:24:22;;;;;;;8.43;3.43;;;13.30;99.90;;;;;;5031044;28;20213;-60
2022/11/10 10:26:51;;;;;;;14.17;3.77;;;13.40;99.90;;;;;;5027731;28;20607;-59
2022/11/10 10:29:23;;;;;;;11.17;3.47;;;13.40;99.90;;;;;;5029161;28;20684;-58
2022/11/10 10:31:52;;;;;;;11.10;3.73;;;13.40;99.90;;;;;;5029797;28;20206;-58
2022/11/10 10:34:23;;;;;;;8.73;2.90;;;13.70;99.90;;;;;;5024010;28;20566;-58
2022/11/10 10:36:49;;;;;;;9.47;2.97;;;13.70;99.90;;;;;;5028429;28;20198;-57
2022/11/10 10:39:29;;;;;;;5.30;2.87;;;13.90;99.90;;;;;;5028357;28;20213;-57
2022/11/10 10:41:54;;;;;;;6.67;2.93;;;14.00;99.90;;;;;;5025440;28;20218;-59
2022/11/10 10:44:20;;;;;;;8.33;3.40;;;14.10;99.90;;;;;;5032041;28;20257;-59
2022/11/10 10:46:49;;;;;;;9.17;3.37;;;14.20;99.90;;;;;;5029779;28;20194;-56
2022/11/10 10:49:29;;;;;;;7.37;2.93;;;14.10;99.90;;;;;;5027105;28;20414;-57
2022/11/10 10:52:05;;;;;;;14.03;3.47;;;14.10;99.90;;;;;;5028513;28;20216;-57
2022/11/10 10:54:33;;;;;;;11.47;2.67;;;14.20;99.90;;;;;;5027496;28;20237;-57
2022/11/10 10:57:04;;;;;;;6.80;3.93;;;14.20;99.90;;;;;;5027965;28;20211;-58
2022/11/10 10:59:31;;;;;;;11.07;3.60;;;14.20;99.90;;;;;;5027001;28;20218;-58
2022/11/10 11:01:57;;;;;;;7.03;2.17;;;14.20;99.90;;;;;;5025339;28;20228;-58
2022/11/10 11:04:28;;;;;;;4.23;2.20;;;14.20;99.90;;;;;;5031049;28;20204;-58
2022/11/10 11:07:03;;;;;;;8.60;3.03;;;14.40;99.90;;;;;;5029455;28;20844;-59
2022/11/10 11:09:41;;;;;;;7.33;2.83;;;14.50;99.90;;;;;;5025376;28;20199;-61
2022/11/10 11:12:17;;;;;;;7.27;2.57;;;14.50;99.90;;;;;;5027205;28;20613;-61
2022/11/10 11:14:42;;;;;;;7.83;2.77;;;14.40;99.90;;;;;;5025487;28;20199;-57
2022/11/10 11:17:20;;;;;;;7.63;3.77;;;14.40;99.90;;;;;;5029810;28;20210;-58
2022/11/10 11:19:46;;;;;;;9.10;3.33;;;14.40;99.90;;;;;;5021171;28;20365;-57
2022/11/10 11:22:32;;;;;;;7.00;2.73;;;14.40;99.90;;;;;;5027273;28;20226;-59
2022/11/10 11:25:22;;;;;;;8.47;3.37;;;14.50;99.90;;;;;;5026745;28;20582;-57
2022/11/10 11:28:34;;;;;;;8.77;3.10;;;14.60;99.90;;;;;;5020800;28;20302;-57
2022/11/10 11:31:10;;;;;;;8.60;2.60;;;14.80;99.90;;;;;;5023545;28;20696;-58
2022/11/10 11:34:04;;;;;;;6.73;2.63;;;15.00;99.90;;;;;;5028394;28;20553;-58
2022/11/10 11:37:03;;;;;;;8.50;2.53;;;14.90;99.90;;;;;;5026940;28;20739;-57
2022/11/10 11:40:09;;;;;;;4.33;2.30;;;14.80;99.90;;;;;;5029796;28;20681;-58
2022/11/10 11:43:02;;;;;;;8.33;3.03;;;14.90;99.90;;;;;;5024469;28;20219;-64
2022/11/10 11:45:38;;;;;;;7.73;2.93;;;15.00;99.90;;;;;;5026964;28;20202;-58
2022/11/10 11:48:32;;;;;;;10.03;3.13;;;15.20;99.90;;;;;;5026950;28;20228;-58
2022/11/10 11:51:17;;;;;;;10.03;2.33;;;15.10;99.90;;;;;;5027103;28;20400;-58
2022/11/10 11:54:13;;;;;;;11.57;3.13;;;14.90;99.90;;;;;;5026059;28;20991;-58
2022/11/10 11:56:42;;;;;;;4.80;2.40;;;14.90;99.90;;;;;;5027476;28;20211;-58
2022/11/10 11:59:35;;;;;;;10.67;3.07;;;14.80;99.90;;;;;;5023232;28;20226;-57
2022/11/10 12:02:45;;;;;;;7.20;3.10;;;14.90;99.90;;;;;;5025682;28;20216;-58
2022/11/10 12:05:16;;;;;;;5.77;2.83;;;15.00;99.90;;;;;;5027709;28;20229;-57
2022/11/10 12:08:07;;;;;;;4.43;2.33;;;15.00;99.90;;;;;;5027328;28;20190;-58
2022/11/10 12:10:46;;;;;;;7.13;2.43;;;15.00;99.90;;;;;;5024427;28;20613;-59
2022/11/10 12:13:54;;;;;;;5.73;3.03;;;14.90;99.90;;;;;;5024701;28;20302;-59
2022/11/10 12:16:29;;;;;;;4.57;2.87;;;14.90;99.90;;;;;;5026392;28;20226;-59
2022/11/10 12:19:17;;;;;;;5.83;2.40;;;14.80;99.90;;;;;;5023526;28;20214;-59
2022/11/10 12:22:06;;;;;;;11.13;2.43;;;14.80;99.90;;;;;;5026781;28;20256;-58
2022/11/10 12:25:09;;;;;;;4.77;2.40;;;15.00;99.90;;;;;;5026084;28;20207;-59
2022/11/10 12:27:40;;;;;;;8.77;2.17;;;15.20;99.90;;;;;;5023558;28;20324;-59
2022/11/10 12:30:12;;;;;;;7.60;2.63;;;15.30;99.90;;;;;;5026193;28;20202;-59
2022/11/10 12:32:47;;;;;;;6.53;2.50;;;15.20;99.90;;;;;;5025835;28;20314;-59
2022/11/10 12:35:32;;;;;;;6.97;3.00;;;15.00;99.90;;;;;;5024389;28;20779;-59
2022/11/10 12:38:25;;;;;;;4.83;2.20;;;14.80;99.90;;;;;;5026060;28;20220;-59
2022/11/10 12:41:00;;;;;;;4.70;2.83;;;14.70;99.90;;;;;;5024192;28;20566;-59
2022/11/10 12:43:41;;;;;;;5.57;2.77;;;14.60;99.90;;;;;;5026809;28;20617;-58
2022/11/10 12:46:11;;;;;;;8.10;2.63;;;14.50;99.90;;;;;;5026439;28;20699;-59
2022/11/10 12:49:01;;;;;;;9.80;2.40;;;14.40;99.90;;;;;;5026826;28;20257;-58
2022/11/10 12:51:37;;;;;;;9.83;2.30;;;14.50;99.90;;;;;;5024157;28;20202;-57
2022/11/10 12:54:03;;;;;;;10.80;2.83;;;14.50;99.90;;;;;;5025239;28;20211;-59
2022/11/10 12:56:44;;;;;;;5.97;1.80;;;14.50;99.90;;;;;;5024982;28;20631;-58
2022/11/10 12:59:19;;;;;;;7.47;2.00;;;14.60;99.90;;;;;;5022776;28;20211;-58
2022/11/10 13:01:46;;;;;;;15.03;2.77;;;14.70;99.90;;;;;;5022679;28;20218;-58
2022/11/10 13:04:16;;;;;;;9.13;2.30;;;14.90;99.90;;;;;;5023144;28;20191;-58
2022/11/10 13:06:57;;;;;;;17.63;3.97;;;15.20;99.90;;;;;;5023963;28;20198;-70
2022/11/10 13:09:26;;;;;;;4.67;2.50;;;15.70;99.90;;;;;;5023831;28;20211;-66
2022/11/10 13:12:17;;;;;;;3.30;2.10;;;16.40;99.90;;;;;;5022958;28;20218;-65